Time;durP1;ratioP1;P1;durP2;ratioP2;P2;SDS_P1;SDS_P2;PMS_P1;PMS_P2;Temp;Humidity;BMP_temperature;BMP_pressure;BME280_temperature;BME280_humidity;BME280_pressure;Samples;Min_cycle;Max_cycle;Signal;HPM_P1;HPM_P2
2022/12/22 03:26:55;;;;;;;4.00;3.70;;;;;;;10.74;100.00;95908.69;5051223;28;20072;-46
2022/12/22 03:29:23;;;;;;;3.78;3.47;;;;;;;10.47;100.00;95904.44;5060816;28;20087;-46
2022/12/22 03:31:51;;;;;;;3.85;3.55;;;;;;;10.42;100.00;95906.69;5054342;28;20080;-52
2022/12/22 03:34:21;;;;;;;5.15;3.70;;;;;;;10.23;100.00;95902.47;5054799;28;20099;-44
2022/12/22 03:36:49;;;;;;;4.57;3.72;;;;;;;10.42;100.00;95896.16;5052584;28;20088;-46
2022/12/22 03:39:17;;;;;;;3.90;3.60;;;;;;;10.47;100.00;95887.81;5055854;28;20476;-49
2022/12/22 03:47:17;;;;;;;4.00;3.60;;;;;;;10.38;100.00;95897.47;5060869;28;20720;-46
2022/12/22 03:49:47;;;;;;;3.83;3.42;;;;;;;10.75;100.00;95891.03;5053117;28;20088;-45
2022/12/22 03:52:15;;;;;;;3.92;3.63;;;;;;;10.44;100.00;95886.28;5051083;28;20089;-39
2022/12/22 03:54:44;;;;;;;5.32;3.60;;;;;;;10.13;100.00;95892.03;5051418;28;20077;-41
2022/12/22 03:57:12;;;;;;;4.10;3.80;;;;;;;10.63;100.00;95895.75;5062199;28;20068;-46
2022/12/22 03:59:40;;;;;;;3.55;3.25;;;;;;;10.73;100.00;95891.19;5057109;28;20076;-48
2022/12/22 04:02:09;;;;;;;4.15;3.63;;;;;;;10.71;100.00;95900.25;5056067;28;20480;-51
2022/12/22 04:04:37;;;;;;;4.35;3.92;;;;;;;10.47;100.00;95901.81;5056051;28;20080;-42
2022/12/22 04:07:06;;;;;;;4.43;3.58;;;;;;;10.58;100.00;95900.69;5051363;28;20084;-42
2022/12/22 04:09:35;;;;;;;3.60;3.30;;;;;;;10.97;100.00;95895.72;5064369;28;20084;-45
2022/12/22 04:14:49;;;;;;;3.90;3.47;;;;;;;11.20;100.00;95889.84;5063543;28;20076;-43
2022/12/22 04:17:18;;;;;;;3.72;3.42;;;;;;;11.19;100.00;95899.56;5052389;28;20080;-47
2022/12/22 04:19:46;;;;;;;3.90;3.50;;;;;;;11.25;100.00;95887.53;5054129;28;20087;-43
2022/12/22 04:22:15;;;;;;;3.85;3.53;;;;;;;11.28;100.00;95885.38;5052537;28;20080;-41
2022/12/22 04:24:44;;;;;;;4.55;3.40;;;;;;;11.49;100.00;95881.44;5054129;28;20465;-42
2022/12/22 04:27:12;;;;;;;3.90;3.40;;;;;;;11.53;100.00;95873.03;5055008;28;20084;-40
2022/12/22 04:29:40;;;;;;;3.80;3.20;;;;;;;11.47;100.00;95873.69;5058009;28;20103;-48
2022/12/22 04:32:08;;;;;;;3.72;3.42;;;;;;;11.58;100.00;95872.53;5051222;28;20080;-46
2022/12/22 04:34:37;;;;;;;4.05;3.65;;;;;;;11.48;100.00;95872.69;5051942;28;20087;-41
2022/12/22 04:37:05;;;;;;;3.70;3.40;;;;;;;11.24;100.00;95872.69;5056738;28;20489;-43
2022/12/22 04:39:45;;;;;;;3.97;3.58;;;;;;;11.40;100.00;95867.44;5056625;28;20084;-41
2022/12/22 04:42:13;;;;;;;3.77;3.47;;;;;;;11.31;100.00;95869.22;5054997;28;20087;-45
2022/12/22 04:44:42;;;;;;;3.80;3.42;;;;;;;11.36;100.00;95882.75;5053108;28;20072;-41
2022/12/22 04:47:10;;;;;;;7.60;6.90;;;;;;;11.32;100.00;95870.88;5052283;28;20072;-41
2022/12/22 04:49:38;;;;;;;4.55;4.15;;;;;;;10.96;100.00;95867.69;5052270;28;20084;-43
2022/12/22 04:52:07;;;;;;;3.78;3.47;;;;;;;10.73;100.00;95872.72;5050099;28;20532;-51
2022/12/22 04:54:35;;;;;;;3.90;3.60;;;;;;;10.94;100.00;95867.00;5061214;28;20079;-42
2022/12/22 04:57:05;;;;;;;4.00;3.50;;;;;;;11.10;100.00;95856.50;5052930;28;20081;-44
2022/12/22 04:59:33;;;;;;;3.92;3.50;;;;;;;11.07;100.00;95856.00;5055982;28;20088;-45
2022/12/22 05:02:01;;;;;;;4.88;3.60;;;;;;;10.98;100.00;95852.53;5052676;28;20099;-46
2022/12/22 05:04:31;;;;;;;4.18;3.50;;;;;;;10.58;100.00;95856.69;5056276;28;20092;-44
2022/12/22 05:06:59;;;;;;;3.53;3.22;;;;;;;10.60;100.00;95851.28;5053686;28;20080;-42
2022/12/22 05:09:27;;;;;;;3.97;3.50;;;;;;;11.04;100.00;95851.03;5050128;28;20064;-42
2022/12/22 05:11:55;;;;;;;3.92;3.53;;;;;;;11.01;100.00;95844.28;5055683;28;20088;-49
2022/12/22 05:14:25;;;;;;;4.60;3.65;;;;;;;10.79;100.00;95847.53;5052176;28;20088;-45
2022/12/22 05:16:53;;;;;;;3.80;3.50;;;;;;;11.02;100.00;95837.19;5054919;28;20080;-43
2022/12/22 05:19:22;;;;;;;3.47;3.17;;;;;;;10.63;100.00;95845.66;5055413;28;20079;-50
2022/12/22 05:21:57;;;;;;;3.55;3.25;;;;;;;10.63;100.00;95840.38;5053103;28;20430;-42
2022/12/22 05:24:25;;;;;;;3.67;3.38;;;;;;;11.30;100.00;95835.09;5068475;28;20072;-40
2022/12/22 05:26:54;;;;;;;3.80;3.50;;;;;;;11.27;100.00;95830.13;5060727;28;20084;-45
2022/12/22 05:29:22;;;;;;;3.55;3.30;;;;;;;11.24;100.00;95831.28;5054705;28;20083;-43
2022/12/22 05:31:52;;;;;;;4.25;3.05;;;;;;;10.99;100.00;95829.59;5052798;28;20072;-47
2022/12/22 05:34:20;;;;;;;3.45;3.20;;;;;;;11.13;100.00;95828.97;5053347;28;20091;-46
2022/12/22 05:36:48;;;;;;;3.70;3.40;;;;;;;10.78;100.00;95827.44;5049118;28;20079;-40
2022/12/22 05:39:18;;;;;;;4.45;3.30;;;;;;;11.08;100.00;95828.63;5049113;28;20091;-48
2022/12/22 05:41:46;;;;;;;3.33;3.03;;;;;;;10.97;100.00;95829.75;5054945;28;20080;-41
2022/12/22 05:44:14;;;;;;;3.20;3.00;;;;;;;10.84;100.00;95832.88;5054847;28;20084;-41
2022/12/22 05:46:43;;;;;;;3.20;2.90;;;;;;;11.16;100.00;95836.56;5057076;28;20080;-44
2022/12/22 05:49:12;;;;;;;4.32;3.00;;;;;;;11.35;100.00;95830.13;5054724;28;20087;-47
2022/12/22 05:51:41;;;;;;;3.20;2.80;;;;;;;11.41;100.00;95832.94;5052377;28;20537;-50
2022/12/22 05:54:09;;;;;;;3.00;2.80;;;;;;;11.33;100.00;95834.75;5049261;28;20127;-40
2022/12/22 05:56:38;;;;;;;3.30;3.00;;;;;;;11.53;100.00;95835.25;5061850;28;20110;-51
2022/12/22 05:59:06;;;;;;;3.10;2.90;;;;;;;11.84;100.00;95828.31;5059178;28;20071;-45
2022/12/22 06:01:34;;;;;;;3.55;3.15;;;;;;;11.73;100.00;95838.34;5052194;28;20084;-45
2022/12/22 06:04:02;;;;;;;3.40;3.10;;;;;;;11.60;100.00;95833.59;5059924;28;20088;-41
2022/12/22 06:06:33;;;;;;;3.90;3.60;;;;;;;11.26;100.00;95836.41;5060857;28;20087;-41
2022/12/22 06:09:02;;;;;;;4.63;3.55;;;;;;;11.51;100.00;95829.31;5057753;28;20084;-42
2022/12/22 06:11:30;;;;;;;4.28;3.58;;;;;;;11.46;100.00;95836.88;5050515;28;20080;-41
2022/12/22 06:13:58;;;;;;;3.90;3.60;;;;;;;11.09;100.00;95825.81;5055731;28;20122;-41
2022/12/22 06:16:26;;;;;;;3.60;3.30;;;;;;;11.17;100.00;95823.19;5056364;28;20076;-48
2022/12/22 06:18:55;;;;;;;3.75;3.45;;;;;;;11.19;100.00;95830.13;5051212;28;20080;-49
2022/12/22 06:21:23;;;;;;;3.40;3.20;;;;;;;10.97;100.00;95818.38;5058810;28;20083;-46
2022/12/22 06:23:53;;;;;;;4.28;3.60;;;;;;;11.05;100.00;95824.50;5056551;28;20095;-46
2022/12/22 06:26:22;;;;;;;3.50;3.30;;;;;;;11.06;100.00;95826.16;5054815;28;20076;-43
2022/12/22 06:28:50;;;;;;;3.58;3.28;;;;;;;10.98;100.00;95825.31;5061071;28;20507;-42
2022/12/22 06:31:18;;;;;;;4.20;3.80;;;;;;;11.00;100.00;95820.69;5049588;28;20513;-43
2022/12/22 06:33:46;;;;;;;3.85;3.50;;;;;;;10.96;100.00;95816.75;5058909;28;20540;-45
2022/12/22 06:36:14;;;;;;;3.40;3.20;;;;;;;10.69;100.00;95814.19;5053379;28;20080;-41
2022/12/22 06:38:43;;;;;;;3.40;3.10;;;;;;;10.82;100.00;95819.03;5054922;28;20088;-44
2022/12/22 06:41:12;;;;;;;3.30;3.10;;;;;;;10.45;100.00;95830.78;5053113;28;20095;-44
2022/12/22 06:43:39;;;;;;;3.20;3.00;;;;;;;10.54;100.00;95839.56;5050293;28;20473;-46
2022/12/22 06:46:08;;;;;;;3.45;3.15;;;;;;;10.53;100.00;95835.28;5053734;28;20088;-42
2022/12/22 06:48:36;;;;;;;3.50;3.30;;;;;;;10.64;100.00;95836.78;5052511;28;20545;-49
2022/12/22 06:51:04;;;;;;;4.15;3.50;;;;;;;10.61;100.00;95837.91;5052508;28;20098;-46
2022/12/22 06:53:33;;;;;;;3.33;3.13;;;;;;;10.51;100.00;95842.50;5060267;28;20088;-44
2022/12/22 06:56:01;;;;;;;3.85;3.50;;;;;;;10.86;100.00;95833.53;5057235;28;20095;-41
2022/12/22 06:58:31;;;;;;;3.85;3.47;;;;;;;10.83;100.00;95831.22;5058359;28;20080;-43
2022/12/22 07:00:59;;;;;;;4.47;4.18;;;;;;;10.92;100.00;95835.53;5061725;28;20099;-46
2022/12/22 07:03:27;;;;;;;6.13;5.53;;;;;;;10.92;100.00;95835.53;5052194;28;20144;-44
2022/12/22 07:05:56;;;;;;;29.85;20.10;;;;;;;10.75;100.00;95839.13;5051975;28;20084;-43
2022/12/22 07:08:24;;;;;;;9.05;6.78;;;;;;;10.92;100.00;95839.97;5054952;28;20091;-42
2022/12/22 07:10:58;;;;;;;8.50;7.75;;;;;;;10.74;100.00;95852.47;5067355;28;20453;-42
2022/12/22 07:13:28;;;;;;;4.47;4.07;;;;;;;10.62;100.00;95841.38;5057732;28;20072;-45
2022/12/22 07:15:58;;;;;;;3.67;3.30;;;;;;;10.81;100.00;95838.47;5062381;28;20076;-41
2022/12/22 07:18:30;;;;;;;3.85;3.55;;;;;;;11.00;100.00;95834.72;5057064;28;20496;-42
2022/12/22 07:20:59;;;;;;;3.47;3.20;;;;;;;11.10;100.00;95824.84;5058763;28;20083;-43
2022/12/22 07:23:28;;;;;;;4.13;3.58;;;;;;;11.07;100.00;95826.97;5060749;28;20075;-47
2022/12/22 07:25:56;;;;;;;3.80;3.50;;;;;;;11.16;100.00;95834.75;5060028;28;20045;-44
2022/12/22 07:28:25;;;;;;;3.90;3.50;;;;;;;11.24;100.00;95820.72;5061892;28;20079;-41
2022/12/22 07:30:54;;;;;;;3.10;2.80;;;;;;;11.25;100.00;95819.75;5062793;28;20085;-44
2022/12/22 07:33:23;;;;;;;4.10;2.75;;;;;;;11.35;100.00;95824.84;5063751;28;20490;-42
2022/12/22 07:36:02;;;;;;;3.00;2.80;;;;;;;11.51;100.00;95814.28;5057407;28;20095;-41
2022/12/22 07:38:35;;;;;;;3.88;2.72;;;;;;;11.52;100.00;95817.75;5058371;28;20083;-45
2022/12/22 07:42:43;;;;;;;3.47;2.70;;;;;;;11.69;100.00;95818.56;5054096;28;20075;-44
2022/12/22 07:43:52;;;;;;;2.67;2.50;;;;;;;11.73;100.00;95817.22;5050507;28;20080;-48
2022/12/22 07:46:21;;;;;;;4.43;2.70;;;;;;;12.17;100.00;95825.56;5051903;28;20632;-46
2022/12/22 07:51:39;;;;;;;2.60;2.40;;;;;;;12.13;100.00;95823.44;5060777;28;20069;-44
2022/12/22 07:54:08;;;;;;;;;;;;;;;12.07;100.00;95817.84;5052045;28;20103;-46
2022/12/22 07:56:36;;;;;;;2.60;2.40;;;;;;;12.19;100.00;95810.38;5060619;28;19960;-44
2022/12/22 07:59:05;;;;;;;3.47;2.40;;;;;;;12.45;100.00;95807.47;5053993;28;20091;-44
2022/12/22 08:01:33;;;;;;;4.45;2.80;;;;;;;12.40;100.00;95811.63;5057782;28;20687;-46
2022/12/22 08:04:04;;;;;;;3.58;2.50;;;;;;;12.64;100.00;95810.69;5058807;28;20076;-47
2022/12/22 08:06:32;;;;;;;3.92;2.60;;;;;;;12.96;100.00;95809.66;5055183;28;20103;-47
2022/12/22 08:09:01;;;;;;;5.18;2.50;;;;;;;12.56;100.00;95812.38;5058262;28;20092;-45
2022/12/22 08:11:29;;;;;;;4.18;2.40;;;;;;;12.72;100.00;95810.63;5051153;28;20064;-42
2022/12/22 08:13:58;;;;;;;2.47;2.30;;;;;;;12.55;100.00;95813.38;5059989;28;20102;-48
2022/12/22 08:16:29;;;;;;;2.63;2.42;;;;;;;12.73;100.00;95813.13;5053458;28;20057;-43
2022/12/22 08:18:57;;;;;;;2.88;2.50;;;;;;;12.72;100.00;95808.81;5063178;28;20080;-43
2022/12/22 08:21:27;;;;;;;4.97;2.65;;;;;;;13.00;100.00;95818.91;5055273;28;20068;-43
2022/12/22 08:23:55;;;;;;;3.83;2.50;;;;;;;12.93;100.00;95812.66;5061586;28;20091;-43
2022/12/22 08:26:26;;;;;;;4.70;2.60;;;;;;;13.16;100.00;95804.75;5053763;28;20076;-43
2022/12/22 08:28:55;;;;;;;;;;;;;;;13.10;100.00;95805.44;5068546;28;20072;-43
2022/12/22 08:31:26;;;;;;;5.70;2.70;;;;;;;12.98;100.00;95805.84;5053335;28;19968;-47
2022/12/22 08:33:54;;;;;;;4.40;2.65;;;;;;;12.61;100.00;95801.28;5050752;28;20558;-43
2022/12/22 08:36:23;;;;;;;5.88;2.90;;;;;;;12.65;100.00;95799.94;5055058;28;20083;-44
2022/12/22 08:38:53;;;;;;;2.83;2.55;;;;;;;12.61;100.00;95811.84;5056334;28;20088;-49
2022/12/22 08:41:48;;;;;;;3.33;2.60;;;;;;;12.93;100.00;95797.59;5055838;28;20137;-47
2022/12/22 08:44:10;;;;;;;5.07;2.83;;;;;;;12.75;100.00;95811.13;5056299;28;20513;-49
2022/12/22 08:46:38;;;;;;;3.85;2.63;;;;;;;12.68;100.00;95806.69;5058794;28;20072;-45
2022/12/22 08:49:06;;;;;;;2.75;2.55;;;;;;;12.75;100.00;95799.72;5053204;28;20080;-47
2022/12/22 08:51:35;;;;;;;4.25;2.90;;;;;;;12.99;100.00;95801.38;5056374;28;20088;-45
2022/12/22 08:54:05;;;;;;;3.63;2.67;;;;;;;13.09;100.00;95798.50;5063671;28;20503;-48
2022/12/22 08:56:34;;;;;;;4.70;2.53;;;;;;;13.13;100.00;95805.09;5049746;28;20472;-48
2022/12/22 08:59:06;;;;;;;4.85;2.72;;;;;;;12.68;100.00;95812.81;5051713;28;20091;-49
2022/12/22 09:01:36;;;;;;;4.22;2.50;;;;;;;12.67;100.00;95810.34;5056693;28;20064;-47
2022/12/22 09:04:05;;;;;;;4.27;2.73;;;;;;;12.82;100.00;95809.41;5053461;28;20109;-42
2022/12/22 09:06:34;;;;;;;6.88;3.00;;;;;;;12.80;100.00;95816.72;5051461;28;20084;-44
2022/12/22 09:09:11;;;;;;;5.57;2.95;;;;;;;12.75;100.00;95810.28;5050144;28;20076;-44
2022/12/22 09:11:40;;;;;;;2.90;2.60;;;;;;;12.92;100.00;95817.13;5064646;28;20080;-44
2022/12/22 09:14:09;;;;;;;4.50;2.90;;;;;;;12.92;100.00;95825.06;5059058;28;20080;-43
2022/12/22 09:16:38;;;;;;;6.43;2.92;;;;;;;13.03;100.00;95832.59;5055158;28;20085;-50
2022/12/22 09:19:07;;;;;;;3.33;2.45;;;;;;;13.19;100.00;95828.22;5050785;28;20069;-42
2022/12/22 09:21:36;;;;;;;3.28;2.40;;;;;;;12.91;100.00;95809.38;5049206;28;20064;-41
2022/12/22 09:24:06;;;;;;;4.18;2.30;;;;;;;12.86;100.00;95827.59;5066604;28;20076;-42
2022/12/22 09:26:36;;;;;;;4.82;2.20;;;;;;;13.07;100.00;95823.34;5052808;28;20072;-46
2022/12/22 09:29:04;;;;;;;3.60;2.40;;;;;;;13.15;100.00;95834.88;5052818;28;20488;-43
2022/12/22 09:31:33;;;;;;;5.25;2.42;;;;;;;13.27;100.00;95844.88;5060009;28;20064;-48
2022/12/22 09:34:02;;;;;;;2.95;2.42;;;;;;;12.85;100.00;95845.28;5054146;28;20085;-41
2022/12/22 09:36:32;;;;;;;2.78;2.38;;;;;;;12.87;100.00;95845.97;5060649;28;20155;-49
2022/12/22 09:39:04;;;;;;;;;;;;;;;12.78;100.00;95844.34;5056172;28;20099;-44
2022/12/22 09:41:36;;;;;;;3.35;2.40;;;;;;;12.66;100.00;95867.69;5054512;28;20400;-44
2022/12/22 09:44:06;;;;;;;5.13;2.78;;;;;;;12.75;100.00;95847.34;5053047;28;20079;-48
2022/12/22 09:46:35;;;;;;;5.00;2.55;;;;;;;12.35;100.00;95833.28;5055629;28;20619;-46
2022/12/22 09:49:05;;;;;;;3.50;2.40;;;;;;;12.50;100.00;95828.13;5052755;28;20076;-46
2022/12/22 09:51:39;;;;;;;3.92;2.80;;;;;;;12.92;100.00;95827.72;5056894;28;20069;-42
2022/12/22 09:54:10;;;;;;;4.07;2.80;;;;;;;12.99;100.00;95818.09;5053022;28;20080;-45
2022/12/22 09:56:39;;;;;;;4.45;2.80;;;;;;;13.28;100.00;95811.28;5053035;28;20476;-49
2022/12/22 09:59:10;;;;;;;4.60;2.72;;;;;;;13.61;100.00;95813.69;5062800;28;20076;-43
2022/12/22 10:01:58;;;;;;;3.70;2.50;;;;;;;13.30;100.00;95812.75;5052105;28;20076;-42
2022/12/22 10:04:36;;;;;;;3.28;2.50;;;;;;;13.45;100.00;95804.03;5060300;28;20166;-41
2022/12/22 10:07:13;;;;;;;4.25;2.70;;;;;;;13.81;100.00;95798.09;5061118;28;20438;-42
2022/12/22 10:09:41;;;;;;;4.05;2.35;;;;;;;13.54;100.00;95798.50;5049284;28;20069;-45
2022/12/22 10:12:23;;;;;;;2.70;2.30;;;;;;;13.77;100.00;95789.69;5065866;28;20067;-41
2022/12/22 10:14:53;;;;;;;3.90;2.45;;;;;;;13.55;100.00;95780.78;5049277;28;20087;-44
2022/12/22 10:17:25;;;;;;;2.63;2.20;;;;;;;13.76;100.00;95785.38;5056389;28;20080;-43
2022/12/22 10:19:55;;;;;;;3.97;2.70;;;;;;;13.75;100.00;95789.03;5055431;28;20085;-45
2022/12/22 10:22:29;;;;;;;3.97;2.13;;;;;;;13.82;100.00;95783.84;5060883;28;20064;-46
2022/12/22 10:24:59;;;;;;;3.42;2.33;;;;;;;14.02;100.00;95783.13;5057863;28;20468;-46
2022/12/22 10:27:30;;;;;;;2.75;2.10;;;;;;;13.46;100.00;95788.00;5051571;28;20071;-44
2022/12/22 10:30:20;;;;;;;3.75;2.20;;;;;;;13.82;100.00;95779.34;5060372;28;20080;-49
2022/12/22 10:33:02;;;;;;;3.53;2.28;;;;;;;13.63;100.00;95791.31;5048582;28;20076;-42
2022/12/22 10:35:49;;;;;;;3.17;2.50;;;;;;;13.75;100.00;95770.50;5053116;28;20087;-48
2022/12/22 10:38:21;;;;;;;3.20;2.20;;;;;;;13.56;100.00;95785.09;5052803;28;20107;-43
2022/12/22 10:40:51;;;;;;;2.55;2.17;;;;;;;13.58;100.00;95779.59;5052733;28;20464;-45
2022/12/22 10:43:32;;;;;;;3.20;2.28;;;;;;;13.66;100.00;95776.84;5056514;28;20076;-43
2022/12/22 10:46:00;;;;;;;2.58;2.20;;;;;;;13.86;100.00;95766.56;5060184;28;20041;-42
2022/12/22 10:48:31;;;;;;;5.75;2.40;;;;;;;13.90;100.00;95744.84;5054222;28;20061;-43
2022/12/22 10:51:00;;;;;;;3.58;2.28;;;;;;;14.15;100.00;95765.75;5055577;28;20083;-42
2022/12/22 10:53:47;;;;;;;2.97;2.17;;;;;;;13.74;100.00;95771.50;5052878;28;20071;-42
2022/12/22 10:56:22;;;;;;;3.55;2.30;;;;;;;13.49;100.00;95778.88;5049640;28;20449;-44
2022/12/22 10:58:54;;;;;;;3.63;2.60;;;;;;;13.40;100.00;95778.09;5056180;28;20107;-43
2022/12/22 11:01:27;;;;;;;2.53;2.33;;;;;;;13.46;100.00;95772.09;5051237;28;20568;-44
2022/12/22 11:03:56;;;;;;;5.65;2.55;;;;;;;13.86;100.00;95779.81;5058504;28;20095;-43
2022/12/22 11:06:25;;;;;;;7.47;2.90;;;;;;;14.33;100.00;95771.50;5052024;28;20060;-42
2022/12/22 11:08:53;;;;;;;3.17;2.35;;;;;;;14.12;100.00;95774.06;5058899;28;20080;-44
2022/12/22 11:11:46;;;;;;;5.35;2.50;;;;;;;14.62;100.00;95764.50;5052794;28;20080;-43
2022/12/22 11:14:24;;;;;;;2.42;2.22;;;;;;;14.32;100.00;95764.56;5057726;28;20091;-45
2022/12/22 11:16:58;;;;;;;2.83;2.10;;;;;;;14.33;100.00;95744.16;5057460;28;20076;-42
2022/12/22 11:19:55;;;;;;;3.88;2.45;;;;;;;14.05;100.00;95760.72;5058186;28;20076;-42
2022/12/22 11:22:34;;;;;;;2.78;2.30;;;;;;;14.19;100.00;95740.50;5052349;28;20528;-48
2022/12/22 11:25:15;;;;;;;3.23;2.93;;;;;;;13.73;100.00;95744.19;5049962;28;20715;-43
2022/12/22 11:27:44;;;;;;;;;;;;;;;13.84;100.00;95750.84;5055326;28;20064;-47
2022/12/22 11:30:19;;;;;;;4.05;2.22;;;;;;;13.81;100.00;95776.91;5056606;28;19979;-43
2022/12/22 11:33:15;;;;;;;2.42;2.20;;;;;;;13.15;100.00;95768.69;5048290;28;20077;-41
2022/12/22 11:35:53;;;;;;;3.05;2.45;;;;;;;13.00;100.00;95781.84;5055208;28;20092;-46
2022/12/22 11:38:31;;;;;;;3.58;2.30;;;;;;;12.72;100.00;95779.72;5051317;28;20084;-46
2022/12/22 11:41:05;;;;;;;4.10;2.70;;;;;;;12.63;100.00;95780.78;5060162;28;20084;-44
2022/12/22 11:43:40;;;;;;;2.90;2.45;;;;;;;12.50;100.00;95777.88;5051172;28;20508;-48
2022/12/22 11:46:22;;;;;;;4.22;2.33;;;;;;;12.31;100.00;95785.22;5056448;28;20084;-45
2022/12/22 11:49:11;;;;;;;3.40;2.50;;;;;;;12.14;100.00;95775.69;5054205;28;20079;-44
2022/12/22 11:52:05;;;;;;;5.82;2.60;;;;;;;12.15;100.00;95780.00;5051650;28;20068;-42
2022/12/22 11:54:43;;;;;;;4.07;2.70;;;;;;;12.24;100.00;95783.44;5051034;28;20087;-45
2022/12/22 11:57:19;;;;;;;5.03;2.97;;;;;;;12.50;100.00;95756.72;5058549;28;20076;-43
2022/12/22 11:59:53;;;;;;;6.70;2.90;;;;;;;12.32;100.00;95751.69;5063955;28;20095;-44
2022/12/22 12:02:48;;;;;;;6.20;2.85;;;;;;;13.00;100.00;95735.03;5052503;28;20077;-51
2022/12/22 12:05:38;;;;;;;4.28;2.70;;;;;;;13.01;100.00;95733.22;5058928;28;20468;-45
2022/12/22 12:08:16;;;;;;;6.43;2.85;;;;;;;12.64;100.00;95739.28;5058031;28;20112;-47
2022/12/22 12:10:47;;;;;;;3.95;2.88;;;;;;;12.91;100.00;95727.34;5059495;28;20072;-42
2022/12/22 12:13:25;;;;;;;5.63;2.90;;;;;;;13.11;100.00;95722.38;5051320;28;20079;-46
2022/12/22 12:16:10;;;;;;;4.53;2.65;;;;;;;12.86;100.00;95712.00;5055086;28;20080;-45
2022/12/22 12:18:54;;;;;;;4.50;2.70;;;;;;;12.76;100.00;95724.63;5059284;28;20076;-43
2022/12/22 12:21:27;;;;;;;5.68;2.78;;;;;;;12.82;100.00;95716.81;5063506;28;20092;-44
2022/12/22 12:24:12;;;;;;;4.63;2.90;;;;;;;12.87;100.00;95720.75;5052229;28;20080;-45
2022/12/22 12:26:47;;;;;;;4.45;2.53;;;;;;;13.19;100.00;95699.31;5059262;28;20080;-46
2022/12/22 12:29:18;;;;;;;7.18;3.30;;;;;;;12.93;100.00;95702.34;5062014;28;20511;-41
2022/12/22 12:31:51;;;;;;;5.63;2.80;;;;;;;13.42;100.00;95696.66;5050543;28;20088;-46
2022/12/22 12:34:21;;;;;;;4.00;2.60;;;;;;;13.11;100.00;95674.72;5053231;28;20080;-42
2022/12/22 12:36:53;;;;;;;9.65;2.88;;;;;;;13.71;100.00;95692.38;5052608;28;20084;-43
2022/12/22 12:39:26;;;;;;;6.03;2.80;;;;;;;13.68;100.00;95698.84;5055882;28;20080;-45
2022/12/22 12:42:04;;;;;;;9.13;3.38;;;;;;;13.44;100.00;95694.63;5051909;28;20077;-46
2022/12/22 12:44:34;;;;;;;6.95;2.58;;;;;;;13.67;100.00;95696.41;5058628;28;20079;-43
2022/12/22 12:47:08;;;;;;;5.80;2.55;;;;;;;13.36;100.00;95702.66;5052698;28;20126;-47
2022/12/22 12:49:55;;;;;;;7.72;2.38;;;;;;;13.72;100.00;95699.31;5058218;28;20071;-42
2022/12/22 12:53:12;;;;;;;6.60;2.63;;;;;;;13.69;100.00;95699.66;5050574;28;20071;-42
2022/12/22 12:55:58;;;;;;;5.47;2.85;;;;;;;13.83;100.00;95700.66;5055132;28;20072;-44
2022/12/22 12:58:52;;;;;;;5.40;2.53;;;;;;;14.05;100.00;95704.25;5049671;28;20076;-39
2022/12/22 13:01:55;;;;;;;10.50;2.90;;;;;;;14.04;100.00;95706.06;5054161;28;20081;-42
2022/12/22 13:05:12;;;;;;;5.68;2.47;;;;;;;13.99;100.00;95705.78;5052515;28;20537;-50
2022/12/22 13:08:13;;;;;;;7.50;2.30;;;;;;;14.17;100.00;95700.91;5049942;28;20088;-45
2022/12/22 13:10:45;;;;;;;9.10;3.08;;;;;;;14.47;100.00;95682.28;5061489;28;20087;-48
2022/12/22 13:13:44;;;;;;;6.47;2.75;;;;;;;14.25;100.00;95686.75;5054269;28;20072;-43
2022/12/22 13:16:25;;;;;;;4.45;2.40;;;;;;;14.09;100.00;95695.72;5052520;28;20568;-46
2022/12/22 13:18:57;;;;;;;5.75;2.40;;;;;;;14.51;100.00;95688.06;5053498;28;20089;-43
2022/12/22 13:21:29;;;;;;;3.58;2.10;;;;;;;14.01;100.00;95696.66;5058946;28;20154;-47
2022/12/22 13:24:36;;;;;;;3.95;2.67;;;;;;;14.15;100.00;95710.91;5056093;28;20073;-44
2022/12/22 13:27:05;;;;;;;4.15;2.33;;;;;;;14.20;100.00;95705.84;5050563;28;20088;-48
2022/12/22 13:29:42;;;;;;;15.48;2.78;;;;;;;14.29;100.00;95698.63;5057648;28;20079;-45
2022/12/22 13:32:20;;;;;;;5.32;2.40;;;;;;;13.86;100.00;95697.66;5053783;28;20083;-41
2022/12/22 13:34:54;;;;;;;3.97;2.45;;;;;;;14.08;100.00;95709.19;5053362;28;20080;-45
2022/12/22 13:37:45;;;;;;;4.05;2.30;;;;;;;14.05;100.00;95702.41;5052771;28;20073;-41
2022/12/22 13:40:18;;;;;;;9.98;2.70;;;;;;;14.12;100.00;95713.09;5050359;28;20077;-40
2022/12/22 13:42:48;;;;;;;7.57;2.35;;;;;;;14.22;100.00;95718.94;5053008;28;20087;-46
2022/12/22 13:45:33;;;;;;;3.25;2.53;;;;;;;14.15;100.00;95710.09;5048966;28;20551;-44
2022/12/22 13:48:06;;;;;;;4.07;2.60;;;;;;;14.20;100.00;95726.25;5052990;28;20496;-41
2022/12/22 13:50:37;;;;;;;4.05;2.60;;;;;;;14.36;100.00;95707.47;5055675;28;20124;-52
2022/12/22 13:53:08;;;;;;;4.20;2.20;;;;;;;14.14;100.00;95719.88;5061665;28;20091;-47
2022/12/22 13:55:38;;;;;;;6.18;2.65;;;;;;;14.36;100.00;95735.84;5054862;28;20076;-45
2022/12/22 13:58:09;;;;;;;7.00;3.05;;;;;;;14.29;100.00;95725.13;5054571;28;20085;-53
2022/12/22 14:00:37;;;;;;;6.43;2.63;;;;;;;14.33;100.00;95725.59;5060659;28;20076;-42
2022/12/22 14:03:16;;;;;;;4.47;2.47;;;;;;;14.30;100.00;95716.16;5049664;28;20091;-43
2022/12/22 14:06:18;;;;;;;3.20;2.50;;;;;;;14.14;100.00;95721.66;5061686;28;20103;-42
2022/12/22 14:08:46;;;;;;;5.07;2.42;;;;;;;14.08;100.00;95717.13;5048397;28;20068;-50
2022/12/22 14:11:16;;;;;;;6.97;2.58;;;;;;;14.30;100.00;95699.44;5060027;28;20481;-50
2022/12/22 14:13:45;;;;;;;9.18;2.65;;;;;;;14.10;100.00;95715.09;5052595;28;20103;-43
2022/12/22 14:16:14;;;;;;;6.10;2.38;;;;;;;14.15;100.00;95726.00;5055771;28;20080;-45
2022/12/22 14:18:42;;;;;;;6.22;2.65;;;;;;;14.43;100.00;95711.03;5049779;28;20080;-46
2022/12/22 14:21:11;;;;;;;8.88;3.22;;;;;;;14.13;100.00;95717.38;5060683;28;20088;-47
2022/12/22 14:23:40;;;;;;;5.75;2.88;;;;;;;14.17;100.00;95716.00;5059500;28;20088;-42
2022/12/22 14:26:13;;;;;;;13.10;2.90;;;;;;;14.04;100.00;95719.31;5048466;28;20099;-44
2022/12/22 14:28:49;;;;;;;8.00;3.00;;;;;;;14.07;100.00;95702.22;5058142;28;20095;-40
2022/12/22 14:31:17;;;;;;;5.75;2.50;;;;;;;14.27;100.00;95713.88;5059555;28;20083;-42
2022/12/22 14:33:53;;;;;;;6.35;2.70;;;;;;;13.95;100.00;95697.38;5060742;28;20084;-44
2022/12/22 14:36:24;;;;;;;5.45;2.60;;;;;;;13.94;100.00;95722.25;5058512;28;20461;-44
2022/12/22 14:38:53;;;;;;;6.90;2.95;;;;;;;14.11;100.00;95725.53;5058538;28;20088;-42
2022/12/22 14:41:42;;;;;;;8.15;2.85;;;;;;;14.15;100.00;95736.59;5057078;28;20080;-43
2022/12/22 14:44:15;;;;;;;7.85;2.60;;;;;;;14.25;100.00;95726.53;5049782;28;20555;-44
2022/12/22 14:46:44;;;;;;;7.22;3.05;;;;;;;13.83;100.00;95720.03;5059850;28;20083;-45
2022/12/22 14:49:14;;;;;;;6.90;2.70;;;;;;;13.90;100.00;95728.94;5061303;28;20089;-44
2022/12/22 14:51:43;;;;;;;3.80;2.53;;;;;;;14.03;100.00;95725.63;5058203;28;20099;-49
2022/12/22 14:54:19;;;;;;;7.13;2.80;;;;;;;13.92;100.00;95689.78;5058596;28;20073;-56
2022/12/22 14:56:49;;;;;;;5.10;2.90;;;;;;;13.70;100.00;95686.25;5061791;28;20090;-47
2022/12/22 14:59:26;;;;;;;5.63;2.90;;;;;;;13.98;100.00;95707.63;5056823;28;20114;-50
2022/12/22 15:01:59;;;;;;;4.55;2.60;;;;;;;13.99;100.00;95738.41;5055983;28;20092;-46
2022/12/22 15:04:28;;;;;;;6.63;3.38;;;;;;;14.09;100.00;95751.41;5054418;28;20084;-47
2022/12/22 15:07:14;;;;;;;10.10;3.20;;;;;;;13.65;100.00;95736.31;5050708;28;20473;-46
2022/12/22 15:10:02;;;;;;;4.60;2.75;;;;;;;13.81;100.00;95745.91;5059034;28;20100;-42
2022/12/22 15:12:43;;;;;;;7.75;3.22;;;;;;;13.99;100.00;95749.03;5053954;28;20456;-43
2022/12/22 15:15:17;;;;;;;9.23;3.53;;;;;;;13.78;100.00;95740.97;5053886;28;20095;-48
2022/12/22 15:17:46;;;;;;;7.18;3.25;;;;;;;14.16;100.00;95764.75;5059079;28;20110;-47
2022/12/22 15:20:19;;;;;;;5.47;3.00;;;;;;;13.76;100.00;95735.88;5056101;28;20077;-41
2022/12/22 15:22:48;;;;;;;8.27;3.13;;;;;;;13.79;100.00;95769.13;5060545;28;20072;-42
2022/12/22 15:25:19;;;;;;;6.47;3.10;;;;;;;13.86;100.00;95762.09;5054257;28;20072;-47
2022/12/22 15:27:47;;;;;;;;;;;;;;;13.88;100.00;95775.97;5061258;28;20572;-41
2022/12/22 15:30:19;;;;;;;8.18;3.10;;;;;;;13.86;100.00;95763.91;5060000;28;19956;-44